sensor_id;sensor_type;location;lat;lon;timestamp;P1;durP1;ratioP1;P2;durP2;ratioP2
69837;SDS011;57135;51.992;4.476;2022-08-14T00:00:16;7.89;;;7.89;;
69837;SDS011;57135;51.992;4.476;2022-08-14T00:02:43;7.86;;;7.86;;
69837;SDS011;57135;51.992;4.476;2022-08-14T00:05:10;7.82;;;7.82;;
69837;SDS011;57135;51.992;4.476;2022-08-14T00:07:37;8.35;;;8.35;;
69837;SDS011;57135;51.992;4.476;2022-08-14T00:10:04;8.12;;;8.11;;
69837;SDS011;57135;51.992;4.476;2022-08-14T00:12:33;8.15;;;8.15;;
69837;SDS011;57135;51.992;4.476;2022-08-14T00:15:02;8.01;;;8.01;;
69837;SDS011;57135;51.992;4.476;2022-08-14T00:17:31;8.36;;;8.36;;
69837;SDS011;57135;51.992;4.476;2022-08-14T00:19:56;8.22;;;8.22;;
69837;SDS011;57135;51.992;4.476;2022-08-14T00:22:22;8.46;;;8.46;;
69837;SDS011;57135;51.992;4.476;2022-08-14T00:24:47;8.59;;;8.59;;
69837;SDS011;57135;51.992;4.476;2022-08-14T00:27:13;8.89;;;8.89;;
69837;SDS011;57135;51.992;4.476;2022-08-14T00:29:38;8.55;;;8.55;;
69837;SDS011;57135;51.992;4.476;2022-08-14T00:32:04;8.23;;;8.23;;
69837;SDS011;57135;51.992;4.476;2022-08-14T00:34:32;8.57;;;8.57;;
69837;SDS011;57135;51.992;4.476;2022-08-14T00:36:57;8.41;;;8.41;;
69837;SDS011;57135;51.992;4.476;2022-08-14T00:39:23;8.70;;;8.70;;
69837;SDS011;57135;51.992;4.476;2022-08-14T00:41:48;8.93;;;8.93;;
69837;SDS011;57135;51.992;4.476;2022-08-14T00:44:14;8.50;;;8.50;;
69837;SDS011;57135;51.992;4.476;2022-08-14T00:46:40;8.95;;;8.95;;
69837;SDS011;57135;51.992;4.476;2022-08-14T00:49:06;9.03;;;9.03;;
69837;SDS011;57135;51.992;4.476;2022-08-14T00:51:32;8.84;;;8.84;;
69837;SDS011;57135;51.992;4.476;2022-08-14T00:53:59;9.01;;;9.01;;
69837;SDS011;57135;51.992;4.476;2022-08-14T00:56:26;9.06;;;9.06;;
69837;SDS011;57135;51.992;4.476;2022-08-14T00:58:53;8.80;;;8.80;;
69837;SDS011;57135;51.992;4.476;2022-08-14T01:01:20;9.11;;;9.11;;
69837;SDS011;57135;51.992;4.476;2022-08-14T01:03:46;9.43;;;9.43;;
69837;SDS011;57135;51.992;4.476;2022-08-14T01:06:12;9.38;;;9.38;;
69837;SDS011;57135;51.992;4.476;2022-08-14T01:08:42;9.87;;;9.87;;
69837;SDS011;57135;51.992;4.476;2022-08-14T01:11:12;10.05;;;10.05;;
69837;SDS011;57135;51.992;4.476;2022-08-14T01:13:41;10.08;;;10.08;;
69837;SDS011;57135;51.992;4.476;2022-08-14T01:16:11;10.39;;;10.39;;
69837;SDS011;57135;51.992;4.476;2022-08-14T01:18:39;9.70;;;9.70;;
69837;SDS011;57135;51.992;4.476;2022-08-14T01:21:31;10.32;;;10.32;;
69837;SDS011;57135;51.992;4.476;2022-08-14T01:24:01;10.42;;;10.42;;
69837;SDS011;57135;51.992;4.476;2022-08-14T01:26:28;10.65;;;10.65;;
69837;SDS011;57135;51.992;4.476;2022-08-14T01:28:55;11.05;;;11.05;;
69837;SDS011;57135;51.992;4.476;2022-08-14T01:31:24;10.66;;;10.66;;
69837;SDS011;57135;51.992;4.476;2022-08-14T01:33:52;10.76;;;10.76;;
69837;SDS011;57135;51.992;4.476;2022-08-14T01:36:22;10.83;;;10.83;;
69837;SDS011;57135;51.992;4.476;2022-08-14T01:38:49;11.10;;;11.10;;
69837;SDS011;57135;51.992;4.476;2022-08-14T01:41:21;10.93;;;10.93;;
69837;SDS011;57135;51.992;4.476;2022-08-14T01:43:49;10.80;;;10.80;;
69837;SDS011;57135;51.992;4.476;2022-08-14T01:46:27;11.35;;;11.35;;
69837;SDS011;57135;51.992;4.476;2022-08-14T01:48:55;12.03;;;12.03;;
69837;SDS011;57135;51.992;4.476;2022-08-14T01:51:22;11.87;;;11.87;;
69837;SDS011;57135;51.992;4.476;2022-08-14T01:53:57;11.89;;;11.89;;
69837;SDS011;57135;51.992;4.476;2022-08-14T01:56:28;11.80;;;11.80;;
69837;SDS011;57135;51.992;4.476;2022-08-14T01:59:10;11.75;;;11.75;;
69837;SDS011;57135;51.992;4.476;2022-08-14T02:01:45;11.77;;;11.77;;
69837;SDS011;57135;51.992;4.476;2022-08-14T02:04:15;12.50;;;12.50;;
69837;SDS011;57135;51.992;4.476;2022-08-14T02:06:41;11.89;;;11.89;;
69837;SDS011;57135;51.992;4.476;2022-08-14T02:09:07;11.70;;;11.70;;
69837;SDS011;57135;51.992;4.476;2022-08-14T02:11:34;11.75;;;11.75;;
69837;SDS011;57135;51.992;4.476;2022-08-14T02:14:02;12.21;;;12.21;;
69837;SDS011;57135;51.992;4.476;2022-08-14T02:16:30;12.46;;;12.46;;
69837;SDS011;57135;51.992;4.476;2022-08-14T02:19:01;12.15;;;12.15;;
69837;SDS011;57135;51.992;4.476;2022-08-14T02:21:30;11.67;;;11.67;;
69837;SDS011;57135;51.992;4.476;2022-08-14T02:23:57;11.90;;;11.90;;
69837;SDS011;57135;51.992;4.476;2022-08-14T02:26:29;12.03;;;12.03;;
69837;SDS011;57135;51.992;4.476;2022-08-14T02:29:01;12.05;;;12.05;;
69837;SDS011;57135;51.992;4.476;2022-08-14T02:31:35;12.64;;;12.64;;
69837;SDS011;57135;51.992;4.476;2022-08-14T02:34:13;12.65;;;12.65;;
69837;SDS011;57135;51.992;4.476;2022-08-14T02:36:43;12.43;;;12.43;;
69837;SDS011;57135;51.992;4.476;2022-08-14T02:39:09;12.65;;;12.65;;
69837;SDS011;57135;51.992;4.476;2022-08-14T02:41:36;12.41;;;12.41;;
69837;SDS011;57135;51.992;4.476;2022-08-14T02:44:03;12.43;;;12.43;;
69837;SDS011;57135;51.992;4.476;2022-08-14T02:46:30;12.46;;;12.46;;
69837;SDS011;57135;51.992;4.476;2022-08-14T02:48:56;12.84;;;12.84;;
69837;SDS011;57135;51.992;4.476;2022-08-14T02:51:22;12.79;;;12.79;;
69837;SDS011;57135;51.992;4.476;2022-08-14T02:53:48;12.42;;;12.42;;
69837;SDS011;57135;51.992;4.476;2022-08-14T02:56:15;13.11;;;13.11;;
69837;SDS011;57135;51.992;4.476;2022-08-14T02:58:45;13.22;;;13.22;;
69837;SDS011;57135;51.992;4.476;2022-08-14T03:01:12;13.14;;;13.14;;
69837;SDS011;57135;51.992;4.476;2022-08-14T03:03:39;13.35;;;13.35;;
69837;SDS011;57135;51.992;4.476;2022-08-14T03:06:06;13.45;;;13.45;;
69837;SDS011;57135;51.992;4.476;2022-08-14T03:08:35;12.97;;;12.97;;
69837;SDS011;57135;51.992;4.476;2022-08-14T03:11:03;13.69;;;13.69;;
69837;SDS011;57135;51.992;4.476;2022-08-14T03:13:41;13.77;;;13.77;;
69837;SDS011;57135;51.992;4.476;2022-08-14T03:16:09;13.51;;;13.51;;
69837;SDS011;57135;51.992;4.476;2022-08-14T03:18:39;13.57;;;13.57;;
69837;SDS011;57135;51.992;4.476;2022-08-14T03:21:10;13.89;;;13.89;;
69837;SDS011;57135;51.992;4.476;2022-08-14T03:23:41;13.25;;;13.25;;
69837;SDS011;57135;51.992;4.476;2022-08-14T03:26:10;13.82;;;13.82;;
69837;SDS011;57135;51.992;4.476;2022-08-14T03:28:37;13.38;;;13.38;;
69837;SDS011;57135;51.992;4.476;2022-08-14T03:31:04;13.35;;;13.35;;
69837;SDS011;57135;51.992;4.476;2022-08-14T03:33:30;13.91;;;13.91;;
69837;SDS011;57135;51.992;4.476;2022-08-14T03:35:56;13.66;;;13.66;;
69837;SDS011;57135;51.992;4.476;2022-08-14T03:38:21;13.72;;;13.72;;
69837;SDS011;57135;51.992;4.476;2022-08-14T03:40:47;13.32;;;13.32;;
69837;SDS011;57135;51.992;4.476;2022-08-14T03:43:14;13.31;;;13.31;;
69837;SDS011;57135;51.992;4.476;2022-08-14T03:45:39;13.29;;;13.29;;
69837;SDS011;57135;51.992;4.476;2022-08-14T03:48:15;13.70;;;13.70;;
69837;SDS011;57135;51.992;4.476;2022-08-14T03:50:50;13.36;;;13.36;;
69837;SDS011;57135;51.992;4.476;2022-08-14T03:53:16;13.26;;;13.26;;
69837;SDS011;57135;51.992;4.476;2022-08-14T03:55:44;13.91;;;13.91;;
69837;SDS011;57135;51.992;4.476;2022-08-14T03:58:10;13.58;;;13.58;;
69837;SDS011;57135;51.992;4.476;2022-08-14T04:00:36;13.65;;;13.65;;
69837;SDS011;57135;51.992;4.476;2022-08-14T04:03:04;13.76;;;13.76;;
69837;SDS011;57135;51.992;4.476;2022-08-14T04:05:31;14.40;;;14.40;;
69837;SDS011;57135;51.992;4.476;2022-08-14T04:07:58;14.48;;;14.48;;
69837;SDS011;57135;51.992;4.476;2022-08-14T04:10:24;14.10;;;14.10;;
69837;SDS011;57135;51.992;4.476;2022-08-14T04:12:50;14.10;;;14.10;;
69837;SDS011;57135;51.992;4.476;2022-08-14T04:15:16;13.87;;;13.87;;
69837;SDS011;57135;51.992;4.476;2022-08-14T04:17:43;13.99;;;13.99;;
69837;SDS011;57135;51.992;4.476;2022-08-14T04:20:09;14.00;;;14.00;;
69837;SDS011;57135;51.992;4.476;2022-08-14T04:22:34;14.29;;;14.29;;
69837;SDS011;57135;51.992;4.476;2022-08-14T04:25:00;14.14;;;14.14;;
69837;SDS011;57135;51.992;4.476;2022-08-14T04:27:26;14.64;;;14.64;;
69837;SDS011;57135;51.992;4.476;2022-08-14T04:29:53;14.26;;;14.26;;
69837;SDS011;57135;51.992;4.476;2022-08-14T04:32:19;14.75;;;14.75;;
69837;SDS011;57135;51.992;4.476;2022-08-14T04:34:47;14.55;;;14.55;;
69837;SDS011;57135;51.992;4.476;2022-08-14T04:37:12;14.54;;;14.54;;
69837;SDS011;57135;51.992;4.476;2022-08-14T04:39:56;14.65;;;14.65;;
69837;SDS011;57135;51.992;4.476;2022-08-14T04:42:40;14.65;;;14.65;;
69837;SDS011;57135;51.992;4.476;2022-08-14T04:45:26;15.76;;;15.76;;
69837;SDS011;57135;51.992;4.476;2022-08-14T04:48:04;15.87;;;15.87;;
69837;SDS011;57135;51.992;4.476;2022-08-14T04:50:41;16.01;;;16.01;;
69837;SDS011;57135;51.992;4.476;2022-08-14T04:53:12;16.42;;;16.42;;
69837;SDS011;57135;51.992;4.476;2022-08-14T04:55:43;16.36;;;16.36;;
69837;SDS011;57135;51.992;4.476;2022-08-14T04:58:31;15.72;;;15.72;;
69837;SDS011;57135;51.992;4.476;2022-08-14T05:00:57;15.90;;;15.90;;
69837;SDS011;57135;51.992;4.476;2022-08-14T05:03:24;15.80;;;15.80;;
69837;SDS011;57135;51.992;4.476;2022-08-14T05:05:54;15.89;;;15.89;;
69837;SDS011;57135;51.992;4.476;2022-08-14T05:08:21;16.20;;;16.20;;
69837;SDS011;57135;51.992;4.476;2022-08-14T05:10:48;16.28;;;16.28;;
69837;SDS011;57135;51.992;4.476;2022-08-14T05:13:22;16.31;;;16.31;;
69837;SDS011;57135;51.992;4.476;2022-08-14T05:15:50;16.98;;;16.98;;
69837;SDS011;57135;51.992;4.476;2022-08-14T05:18:19;17.03;;;17.02;;
69837;SDS011;57135;51.992;4.476;2022-08-14T05:20:48;16.52;;;16.52;;
69837;SDS011;57135;51.992;4.476;2022-08-14T05:23:19;16.92;;;16.92;;
69837;SDS011;57135;51.992;4.476;2022-08-14T05:25:47;16.78;;;16.78;;
69837;SDS011;57135;51.992;4.476;2022-08-14T05:28:19;17.16;;;17.16;;
69837;SDS011;57135;51.992;4.476;2022-08-14T05:30:47;17.71;;;17.70;;
69837;SDS011;57135;51.992;4.476;2022-08-14T05:33:15;16.91;;;16.91;;
69837;SDS011;57135;51.992;4.476;2022-08-14T05:35:44;16.94;;;16.94;;
69837;SDS011;57135;51.992;4.476;2022-08-14T05:38:12;17.45;;;17.45;;
69837;SDS011;57135;51.992;4.476;2022-08-14T05:40:39;18.19;;;18.19;;
69837;SDS011;57135;51.992;4.476;2022-08-14T05:43:05;18.01;;;18.01;;
69837;SDS011;57135;51.992;4.476;2022-08-14T05:45:31;17.63;;;17.63;;
69837;SDS011;57135;51.992;4.476;2022-08-14T05:47:58;17.68;;;17.68;;
69837;SDS011;57135;51.992;4.476;2022-08-14T05:50:24;17.99;;;17.98;;
69837;SDS011;57135;51.992;4.476;2022-08-14T05:52:50;18.08;;;18.03;;
69837;SDS011;57135;51.992;4.476;2022-08-14T05:55:16;18.18;;;18.18;;
69837;SDS011;57135;51.992;4.476;2022-08-14T05:57:59;18.19;;;18.19;;
69837;SDS011;57135;51.992;4.476;2022-08-14T06:00:27;18.27;;;18.27;;
69837;SDS011;57135;51.992;4.476;2022-08-14T06:02:55;18.51;;;18.51;;
69837;SDS011;57135;51.992;4.476;2022-08-14T06:05:24;17.96;;;17.96;;
69837;SDS011;57135;51.992;4.476;2022-08-14T06:07:50;18.76;;;18.76;;
69837;SDS011;57135;51.992;4.476;2022-08-14T06:10:16;19.12;;;19.12;;
69837;SDS011;57135;51.992;4.476;2022-08-14T06:12:41;18.40;;;18.40;;
69837;SDS011;57135;51.992;4.476;2022-08-14T06:15:07;19.05;;;19.05;;
69837;SDS011;57135;51.992;4.476;2022-08-14T06:17:46;19.67;;;19.65;;
69837;SDS011;57135;51.992;4.476;2022-08-14T06:20:17;19.06;;;19.06;;
69837;SDS011;57135;51.992;4.476;2022-08-14T06:22:44;19.15;;;19.15;;
69837;SDS011;57135;51.992;4.476;2022-08-14T06:25:11;19.64;;;19.64;;
69837;SDS011;57135;51.992;4.476;2022-08-14T06:27:42;19.26;;;19.26;;
69837;SDS011;57135;51.992;4.476;2022-08-14T06:30:10;19.04;;;18.92;;
69837;SDS011;57135;51.992;4.476;2022-08-14T06:32:38;18.14;;;18.14;;
69837;SDS011;57135;51.992;4.476;2022-08-14T06:35:05;18.60;;;18.60;;
69837;SDS011;57135;51.992;4.476;2022-08-14T06:40:30;18.87;;;18.87;;
69837;SDS011;57135;51.992;4.476;2022-08-14T06:42:59;18.55;;;18.55;;
69837;SDS011;57135;51.992;4.476;2022-08-14T06:45:27;18.17;;;18.17;;
69837;SDS011;57135;51.992;4.476;2022-08-14T06:47:53;16.76;;;16.76;;
69837;SDS011;57135;51.992;4.476;2022-08-14T06:50:19;17.57;;;17.57;;
69837;SDS011;57135;51.992;4.476;2022-08-14T06:52:46;17.04;;;17.04;;
69837;SDS011;57135;51.992;4.476;2022-08-14T06:55:13;17.21;;;17.21;;
69837;SDS011;57135;51.992;4.476;2022-08-14T06:57:43;17.02;;;17.02;;
69837;SDS011;57135;51.992;4.476;2022-08-14T07:00:11;17.09;;;17.09;;
69837;SDS011;57135;51.992;4.476;2022-08-14T07:02:39;17.49;;;17.49;;
69837;SDS011;57135;51.992;4.476;2022-08-14T07:05:23;16.57;;;16.57;;
69837;SDS011;57135;51.992;4.476;2022-08-14T07:08:26;17.25;;;17.25;;
69837;SDS011;57135;51.992;4.476;2022-08-14T07:10:57;16.99;;;16.99;;
69837;SDS011;57135;51.992;4.476;2022-08-14T07:13:24;16.34;;;16.34;;
69837;SDS011;57135;51.992;4.476;2022-08-14T07:15:51;15.96;;;15.96;;
69837;SDS011;57135;51.992;4.476;2022-08-14T07:18:18;16.12;;;16.12;;
69837;SDS011;57135;51.992;4.476;2022-08-14T07:20:45;15.85;;;15.85;;
69837;SDS011;57135;51.992;4.476;2022-08-14T07:23:11;16.05;;;16.01;;
69837;SDS011;57135;51.992;4.476;2022-08-14T07:25:38;16.82;;;16.82;;
69837;SDS011;57135;51.992;4.476;2022-08-14T07:28:13;16.29;;;16.28;;
69837;SDS011;57135;51.992;4.476;2022-08-14T07:30:40;16.41;;;16.41;;
69837;SDS011;57135;51.992;4.476;2022-08-14T07:33:06;17.21;;;17.21;;
69837;SDS011;57135;51.992;4.476;2022-08-14T07:35:32;16.66;;;16.66;;
69837;SDS011;57135;51.992;4.476;2022-08-14T07:37:58;15.65;;;15.65;;
69837;SDS011;57135;51.992;4.476;2022-08-14T07:40:24;15.89;;;15.89;;
69837;SDS011;57135;51.992;4.476;2022-08-14T07:42:50;15.82;;;15.82;;
69837;SDS011;57135;51.992;4.476;2022-08-14T07:45:16;15.75;;;15.75;;
69837;SDS011;57135;51.992;4.476;2022-08-14T07:47:42;14.51;;;14.51;;
69837;SDS011;57135;51.992;4.476;2022-08-14T07:50:15;15.32;;;15.32;;
69837;SDS011;57135;51.992;4.476;2022-08-14T07:52:42;15.08;;;15.08;;
69837;SDS011;57135;51.992;4.476;2022-08-14T07:55:10;15.53;;;15.53;;
69837;SDS011;57135;51.992;4.476;2022-08-14T07:57:40;15.58;;;15.58;;
69837;SDS011;57135;51.992;4.476;2022-08-14T08:00:08;15.08;;;15.08;;
69837;SDS011;57135;51.992;4.476;2022-08-14T08:02:38;14.37;;;14.37;;
69837;SDS011;57135;51.992;4.476;2022-08-14T08:05:05;15.12;;;15.12;;
69837;SDS011;57135;51.992;4.476;2022-08-14T08:07:32;15.65;;;15.65;;
69837;SDS011;57135;51.992;4.476;2022-08-14T08:09:59;15.07;;;15.07;;
69837;SDS011;57135;51.992;4.476;2022-08-14T08:12:52;14.97;;;14.97;;
69837;SDS011;57135;51.992;4.476;2022-08-14T08:15:39;14.14;;;14.14;;
69837;SDS011;57135;51.992;4.476;2022-08-14T08:18:07;14.74;;;14.74;;
69837;SDS011;57135;51.992;4.476;2022-08-14T08:20:35;14.84;;;14.84;;
69837;SDS011;57135;51.992;4.476;2022-08-14T08:23:03;14.95;;;14.95;;
69837;SDS011;57135;51.992;4.476;2022-08-14T08:25:31;14.40;;;14.40;;
69837;SDS011;57135;51.992;4.476;2022-08-14T08:28:12;13.96;;;13.96;;
69837;SDS011;57135;51.992;4.476;2022-08-14T08:30:39;14.22;;;14.22;;
69837;SDS011;57135;51.992;4.476;2022-08-14T08:33:08;13.98;;;13.98;;
69837;SDS011;57135;51.992;4.476;2022-08-14T08:35:39;13.55;;;13.55;;
69837;SDS011;57135;51.992;4.476;2022-08-14T08:38:05;13.60;;;13.60;;
69837;SDS011;57135;51.992;4.476;2022-08-14T08:40:34;13.35;;;13.35;;
69837;SDS011;57135;51.992;4.476;2022-08-14T08:43:05;12.54;;;12.54;;
69837;SDS011;57135;51.992;4.476;2022-08-14T08:45:35;13.00;;;13.00;;
69837;SDS011;57135;51.992;4.476;2022-08-14T08:48:02;13.19;;;13.19;;
69837;SDS011;57135;51.992;4.476;2022-08-14T08:50:35;13.43;;;13.43;;
69837;SDS011;57135;51.992;4.476;2022-08-14T08:53:04;12.44;;;12.44;;
69837;SDS011;57135;51.992;4.476;2022-08-14T08:55:36;13.38;;;13.38;;
69837;SDS011;57135;51.992;4.476;2022-08-14T08:58:05;12.11;;;12.11;;
69837;SDS011;57135;51.992;4.476;2022-08-14T09:00:33;13.13;;;13.12;;
69837;SDS011;57135;51.992;4.476;2022-08-14T09:03:06;12.87;;;12.87;;
69837;SDS011;57135;51.992;4.476;2022-08-14T09:05:34;12.12;;;12.12;;
69837;SDS011;57135;51.992;4.476;2022-08-14T09:10:36;11.38;;;11.38;;
69837;SDS011;57135;51.992;4.476;2022-08-14T09:13:02;10.98;;;10.98;;
69837;SDS011;57135;51.992;4.476;2022-08-14T09:15:28;11.69;;;11.69;;
69837;SDS011;57135;51.992;4.476;2022-08-14T09:17:54;11.43;;;11.43;;
69837;SDS011;57135;51.992;4.476;2022-08-14T09:20:20;11.72;;;11.72;;
69837;SDS011;57135;51.992;4.476;2022-08-14T09:22:47;11.25;;;11.25;;
69837;SDS011;57135;51.992;4.476;2022-08-14T09:25:17;11.00;;;11.00;;
69837;SDS011;57135;51.992;4.476;2022-08-14T09:27:42;10.18;;;10.18;;
69837;SDS011;57135;51.992;4.476;2022-08-14T09:30:08;10.62;;;10.62;;
69837;SDS011;57135;51.992;4.476;2022-08-14T09:32:38;11.70;;;11.70;;
69837;SDS011;57135;51.992;4.476;2022-08-14T09:35:20;11.01;;;11.01;;
69837;SDS011;57135;51.992;4.476;2022-08-14T09:45:44;10.16;;;10.16;;
69837;SDS011;57135;51.992;4.476;2022-08-14T09:48:15;10.53;;;10.53;;
69837;SDS011;57135;51.992;4.476;2022-08-14T09:50:50;10.35;;;10.35;;
69837;SDS011;57135;51.992;4.476;2022-08-14T09:53:39;10.35;;;10.35;;
69837;SDS011;57135;51.992;4.476;2022-08-14T09:56:10;10.88;;;10.88;;
69837;SDS011;57135;51.992;4.476;2022-08-14T09:58:37;11.19;;;11.19;;
69837;SDS011;57135;51.992;4.476;2022-08-14T10:01:11;10.71;;;10.71;;
69837;SDS011;57135;51.992;4.476;2022-08-14T10:03:49;10.15;;;10.15;;
69837;SDS011;57135;51.992;4.476;2022-08-14T10:06:20;10.54;;;10.54;;
69837;SDS011;57135;51.992;4.476;2022-08-14T10:08:50;10.08;;;10.08;;
69837;SDS011;57135;51.992;4.476;2022-08-14T10:11:28;10.55;;;10.55;;
69837;SDS011;57135;51.992;4.476;2022-08-14T10:14:16;10.51;;;10.51;;
69837;SDS011;57135;51.992;4.476;2022-08-14T10:16:47;9.83;;;9.83;;
69837;SDS011;57135;51.992;4.476;2022-08-14T10:19:16;10.22;;;10.22;;
69837;SDS011;57135;51.992;4.476;2022-08-14T10:21:44;9.47;;;9.47;;
69837;SDS011;57135;51.992;4.476;2022-08-14T10:24:35;9.95;;;9.95;;
69837;SDS011;57135;51.992;4.476;2022-08-14T10:27:12;9.53;;;9.53;;
69837;SDS011;57135;51.992;4.476;2022-08-14T10:29:47;9.20;;;9.20;;
69837;SDS011;57135;51.992;4.476;2022-08-14T10:32:14;9.35;;;9.35;;
69837;SDS011;57135;51.992;4.476;2022-08-14T10:34:39;10.43;;;10.43;;
69837;SDS011;57135;51.992;4.476;2022-08-14T10:39:38;9.60;;;9.60;;
69837;SDS011;57135;51.992;4.476;2022-08-14T10:42:06;9.60;;;9.60;;
69837;SDS011;57135;51.992;4.476;2022-08-14T10:44:39;9.06;;;9.06;;
69837;SDS011;57135;51.992;4.476;2022-08-14T10:47:06;9.53;;;9.53;;
69837;SDS011;57135;51.992;4.476;2022-08-14T10:49:36;8.96;;;8.96;;
69837;SDS011;57135;51.992;4.476;2022-08-14T10:52:21;9.32;;;9.32;;
69837;SDS011;57135;51.992;4.476;2022-08-14T10:54:48;9.29;;;9.29;;
69837;SDS011;57135;51.992;4.476;2022-08-14T10:57:17;9.17;;;9.17;;
69837;SDS011;57135;51.992;4.476;2022-08-14T11:02:17;8.61;;;8.61;;
69837;SDS011;57135;51.992;4.476;2022-08-14T11:04:55;8.28;;;8.28;;
69837;SDS011;57135;51.992;4.476;2022-08-14T11:07:54;8.38;;;8.38;;
69837;SDS011;57135;51.992;4.476;2022-08-14T11:10:40;8.04;;;8.03;;
69837;SDS011;57135;51.992;4.476;2022-08-14T11:13:18;8.50;;;8.50;;
69837;SDS011;57135;51.992;4.476;2022-08-14T11:15:46;8.56;;;8.56;;
69837;SDS011;57135;51.992;4.476;2022-08-14T11:18:13;8.77;;;8.77;;
69837;SDS011;57135;51.992;4.476;2022-08-14T11:20:42;8.70;;;8.70;;
69837;SDS011;57135;51.992;4.476;2022-08-14T11:23:13;9.22;;;9.22;;
69837;SDS011;57135;51.992;4.476;2022-08-14T11:25:43;9.79;;;9.79;;
69837;SDS011;57135;51.992;4.476;2022-08-14T11:28:13;8.97;;;8.97;;
69837;SDS011;57135;51.992;4.476;2022-08-14T11:30:40;8.61;;;8.61;;
69837;SDS011;57135;51.992;4.476;2022-08-14T11:33:09;8.26;;;8.26;;
69837;SDS011;57135;51.992;4.476;2022-08-14T11:35:35;8.29;;;8.29;;
69837;SDS011;57135;51.992;4.476;2022-08-14T11:38:05;7.85;;;7.85;;
69837;SDS011;57135;51.992;4.476;2022-08-14T11:40:35;8.43;;;8.43;;
69837;SDS011;57135;51.992;4.476;2022-08-14T11:43:03;8.07;;;8.07;;
69837;SDS011;57135;51.992;4.476;2022-08-14T11:45:32;8.31;;;8.31;;
69837;SDS011;57135;51.992;4.476;2022-08-14T11:48:15;8.16;;;8.16;;
69837;SDS011;57135;51.992;4.476;2022-08-14T11:50:42;7.81;;;7.81;;
69837;SDS011;57135;51.992;4.476;2022-08-14T11:53:20;8.32;;;8.32;;
69837;SDS011;57135;51.992;4.476;2022-08-14T11:55:46;8.18;;;8.18;;
69837;SDS011;57135;51.992;4.476;2022-08-14T11:58:15;8.05;;;8.05;;
69837;SDS011;57135;51.992;4.476;2022-08-14T12:00:46;7.35;;;7.35;;
69837;SDS011;57135;51.992;4.476;2022-08-14T12:03:13;7.30;;;7.30;;
69837;SDS011;57135;51.992;4.476;2022-08-14T12:05:39;7.45;;;7.45;;
69837;SDS011;57135;51.992;4.476;2022-08-14T12:08:06;6.93;;;6.93;;
69837;SDS011;57135;51.992;4.476;2022-08-14T12:10:34;6.44;;;6.44;;
69837;SDS011;57135;51.992;4.476;2022-08-14T12:13:10;5.89;;;5.89;;
69837;SDS011;57135;51.992;4.476;2022-08-14T12:15:38;5.82;;;5.82;;
69837;SDS011;57135;51.992;4.476;2022-08-14T12:18:05;6.21;;;6.21;;
69837;SDS011;57135;51.992;4.476;2022-08-14T12:20:35;6.16;;;6.16;;
69837;SDS011;57135;51.992;4.476;2022-08-14T12:23:03;5.64;;;5.64;;
69837;SDS011;57135;51.992;4.476;2022-08-14T12:25:30;6.09;;;6.09;;
69837;SDS011;57135;51.992;4.476;2022-08-14T12:27:57;6.21;;;6.21;;
69837;SDS011;57135;51.992;4.476;2022-08-14T12:32:59;5.78;;;5.78;;
69837;SDS011;57135;51.992;4.476;2022-08-14T12:35:39;6.15;;;6.15;;
69837;SDS011;57135;51.992;4.476;2022-08-14T12:38:07;6.04;;;6.04;;
69837;SDS011;57135;51.992;4.476;2022-08-14T12:40:47;6.36;;;6.36;;
69837;SDS011;57135;51.992;4.476;2022-08-14T12:43:14;6.36;;;6.36;;
69837;SDS011;57135;51.992;4.476;2022-08-14T12:45:45;6.01;;;6.01;;
69837;SDS011;57135;51.992;4.476;2022-08-14T12:48:14;5.85;;;5.85;;
69837;SDS011;57135;51.992;4.476;2022-08-14T12:50:41;5.47;;;5.47;;
69837;SDS011;57135;51.992;4.476;2022-08-14T12:53:09;5.95;;;5.95;;
69837;SDS011;57135;51.992;4.476;2022-08-14T12:55:35;5.72;;;5.72;;
69837;SDS011;57135;51.992;4.476;2022-08-14T12:58:03;5.91;;;5.91;;
69837;SDS011;57135;51.992;4.476;2022-08-14T13:00:30;6.15;;;6.15;;
69837;SDS011;57135;51.992;4.476;2022-08-14T13:02:58;6.02;;;6.02;;
69837;SDS011;57135;51.992;4.476;2022-08-14T13:05:25;6.08;;;6.08;;
69837;SDS011;57135;51.992;4.476;2022-08-14T13:07:54;6.24;;;6.24;;
69837;SDS011;57135;51.992;4.476;2022-08-14T13:10:21;6.37;;;6.37;;
69837;SDS011;57135;51.992;4.476;2022-08-14T13:12:48;6.17;;;6.17;;
69837;SDS011;57135;51.992;4.476;2022-08-14T13:15:17;6.56;;;6.56;;
69837;SDS011;57135;51.992;4.476;2022-08-14T13:17:50;5.94;;;5.94;;
69837;SDS011;57135;51.992;4.476;2022-08-14T13:20:18;6.24;;;6.24;;
69837;SDS011;57135;51.992;4.476;2022-08-14T13:22:46;6.43;;;6.43;;
69837;SDS011;57135;51.992;4.476;2022-08-14T13:25:12;6.64;;;6.64;;
69837;SDS011;57135;51.992;4.476;2022-08-14T13:27:43;6.63;;;6.63;;
69837;SDS011;57135;51.992;4.476;2022-08-14T13:30:10;6.73;;;6.73;;
69837;SDS011;57135;51.992;4.476;2022-08-14T13:32:37;6.60;;;6.60;;
69837;SDS011;57135;51.992;4.476;2022-08-14T13:35:12;6.76;;;6.76;;
69837;SDS011;57135;51.992;4.476;2022-08-14T13:37:40;6.84;;;6.84;;
69837;SDS011;57135;51.992;4.476;2022-08-14T13:40:07;6.88;;;6.88;;
69837;SDS011;57135;51.992;4.476;2022-08-14T13:42:33;6.47;;;6.47;;
69837;SDS011;57135;51.992;4.476;2022-08-14T13:45:01;7.06;;;7.06;;
69837;SDS011;57135;51.992;4.476;2022-08-14T13:47:29;6.97;;;6.97;;
69837;SDS011;57135;51.992;4.476;2022-08-14T13:49:57;7.30;;;7.30;;
69837;SDS011;57135;51.992;4.476;2022-08-14T13:52:38;7.68;;;7.68;;
69837;SDS011;57135;51.992;4.476;2022-08-14T13:55:05;7.56;;;7.56;;
69837;SDS011;57135;51.992;4.476;2022-08-14T13:57:32;7.43;;;7.43;;
69837;SDS011;57135;51.992;4.476;2022-08-14T14:00:03;7.83;;;7.83;;
69837;SDS011;57135;51.992;4.476;2022-08-14T14:02:36;8.13;;;8.13;;
69837;SDS011;57135;51.992;4.476;2022-08-14T14:05:03;7.89;;;7.89;;
69837;SDS011;57135;51.992;4.476;2022-08-14T14:07:29;8.37;;;8.37;;
69837;SDS011;57135;51.992;4.476;2022-08-14T14:09:58;7.89;;;7.89;;
69837;SDS011;57135;51.992;4.476;2022-08-14T14:12:26;8.20;;;8.20;;
69837;SDS011;57135;51.992;4.476;2022-08-14T14:14:51;8.18;;;8.18;;
69837;SDS011;57135;51.992;4.476;2022-08-14T14:17:17;8.22;;;8.22;;
69837;SDS011;57135;51.992;4.476;2022-08-14T14:19:49;8.05;;;8.05;;
69837;SDS011;57135;51.992;4.476;2022-08-14T14:22:17;8.41;;;8.41;;
69837;SDS011;57135;51.992;4.476;2022-08-14T14:24:42;8.00;;;8.00;;
69837;SDS011;57135;51.992;4.476;2022-08-14T14:27:10;7.95;;;7.95;;
69837;SDS011;57135;51.992;4.476;2022-08-14T14:29:45;7.90;;;7.90;;
69837;SDS011;57135;51.992;4.476;2022-08-14T14:32:15;7.88;;;7.88;;
69837;SDS011;57135;51.992;4.476;2022-08-14T14:34:42;7.94;;;7.94;;
69837;SDS011;57135;51.992;4.476;2022-08-14T14:37:10;8.10;;;8.10;;
69837;SDS011;57135;51.992;4.476;2022-08-14T14:39:38;8.18;;;8.18;;
69837;SDS011;57135;51.992;4.476;2022-08-14T14:42:04;8.11;;;8.11;;
69837;SDS011;57135;51.992;4.476;2022-08-14T14:44:33;8.02;;;8.02;;
69837;SDS011;57135;51.992;4.476;2022-08-14T14:47:13;8.16;;;8.16;;
69837;SDS011;57135;51.992;4.476;2022-08-14T14:49:41;8.05;;;8.05;;
69837;SDS011;57135;51.992;4.476;2022-08-14T14:52:07;8.12;;;8.12;;
69837;SDS011;57135;51.992;4.476;2022-08-14T14:54:33;8.45;;;8.45;;
69837;SDS011;57135;51.992;4.476;2022-08-14T14:57:03;7.99;;;7.99;;
69837;SDS011;57135;51.992;4.476;2022-08-14T14:59:29;8.12;;;8.12;;
69837;SDS011;57135;51.992;4.476;2022-08-14T15:01:59;8.32;;;8.32;;
69837;SDS011;57135;51.992;4.476;2022-08-14T15:04:30;8.16;;;8.16;;